Darstellungsparameter: Aktuell verwendete Einstellungen:
Skalierung der Graphiken ... ?
xyx+y,   Skalierungsfaktor:      Skalierung: Modus: x, Faktor: 1
Darstellungszeitraum ... ?
Vom - - bis: - -   Zeitraum: 30.03.2011 - 30.03.2011
Min/Max/Avg-Anzeige ... ?
Zeige MMA aktuell
Zeige MMA Monat
Zeige MMA alles
Zeige --A aktuell
Zeige --A Monat
Zeige --A alles
Keine MMA-Anzeige
MMA:
Minimum Maximum Average (ber die Originaldaten)
MMA-Basis: 30.03.2011 - 30.03.2011
Quicknavigation für Darstellung... ?
Tage:      1T, 2T, 3T, 5T -1T -2T -3T -5T +1T +2T +3T +5T
Wochen: 1W, 2W, 3W -1W -2W -3W +1W +2W +3W
Monate: 1M, 3M, 6M -1M -3M -6M +1M +3M +6M
Jahre:    1J, 3J, 5J, 10J -1J -3J -5J -10J +1J +3J +5J +10J
Nutze für die Darstellung ... ?
Originaldaten oder Mittelwerte auf ...
Stundenbasis Tagesbasis Wochenbasis
Monatsbasis Jahresbasis      Datenbasis: Original-Daten
Darstellen als:
Statistik (Auto) Statistik J:M      Darstellung:
Zur Graphik,    zurück zur Übersicht aller Sensoren.
 
Tabellarische Datenbersicht: ?
 
Sensor: Nr:Datum:Temp:Abs-Feuchte:Windchill:Wind:
Aussen-T/F 1 30-03-2011 00:05:03 4.7 C 4.66 g/m*3 4.7 C 0 km/h
2 30-03-2011 00:17:03 4.3 C 4.48 g/m*3 4.3 C 0 km/h
3 30-03-2011 00:29:03 4.1 C 4.48 g/m*3 4.1 C 0 km/h
4 30-03-2011 00:41:03 3.9 C 4.55 g/m*3 3.9 C 0 km/h
5 30-03-2011 00:53:03 3.6 C 4.52 g/m*3 3.6 C 0 km/h
6 30-03-2011 01:05:03 3.4 C 4.52 g/m*3 3.4 C 0 km/h
7 30-03-2011 01:17:03 3.4 C 4.58 g/m*3 3.4 C 0 km/h
8 30-03-2011 01:29:03 3.1 C 4.55 g/m*3 3.1 C 0 km/h
9 30-03-2011 01:41:03 2.8 C 4.58 g/m*3 2.8 C 0 km/h
10 30-03-2011 01:53:03 2.7 C 4.6 g/m*3 2.7 C 0 km/h
11 30-03-2011 02:05:04 2.7 C 4.66 g/m*3 2.7 C 0 km/h
12 30-03-2011 02:17:04 2.8 C 4.75 g/m*3 2.8 C 0 km/h
13 30-03-2011 02:29:04 3.7 C 5.05 g/m*3 3.7 C 0 km/h
14 30-03-2011 02:41:04 3.2 C 4.76 g/m*3 3.2 C 0 km/h
15 30-03-2011 02:53:04 2.9 C 4.72 g/m*3 2.9 C 0 km/h
16 30-03-2011 03:05:04 2.3 C 4.54 g/m*3 2.3 C 0 km/h
17 30-03-2011 03:17:04 1.9 C 4.53 g/m*3 1.9 C 0 km/h
18 30-03-2011 03:29:04 1.9 C 4.58 g/m*3 1.9 C 0 km/h
19 30-03-2011 03:41:04 1.6 C 4.54 g/m*3 1.6 C 0 km/h
20 30-03-2011 03:53:04 1.4 C 4.48 g/m*3 1.4 C 0 km/h
21 30-03-2011 04:05:04 1.3 C 4.45 g/m*3 1.3 C 0 km/h
22 30-03-2011 04:17:04 1 C 4.36 g/m*3 1 C 0 km/h
23 30-03-2011 04:29:04 0.8 C 4.35 g/m*3 0.8 C 0 km/h
24 30-03-2011 04:41:04 0.8 C 4.4 g/m*3 0.8 C 0 km/h
25 30-03-2011 04:53:04 1.2 C 4.53 g/m*3 1.2 C 0 km/h
Sensor: Nr:Datum:Temp:Abs-Feuchte:Windchill:Wind:
Aussen-T/F 26 30-03-2011 05:05:04 0.7 C 4.42 g/m*3 0.7 C 0 km/h
27 30-03-2011 05:17:04 0.5 C 4.36 g/m*3 0.5 C 0 km/h
28 30-03-2011 05:29:04 0.6 C 4.44 g/m*3 0.6 C 0 km/h
29 30-03-2011 05:41:04 0.7 C 4.47 g/m*3 0.7 C 0 km/h
30 30-03-2011 05:53:04 0.7 C 4.47 g/m*3 0.7 C 0 km/h
31 30-03-2011 06:05:05 0.5 C 4.41 g/m*3 0.5 C 0 km/h
32 30-03-2011 06:17:05 0.4 C 4.43 g/m*3 0.4 C 0 km/h
33 30-03-2011 06:29:05 0.2 C 4.37 g/m*3 0.2 C 0 km/h
34 30-03-2011 06:41:05 -0.1 C 4.23 g/m*3 -0.1 C 0 km/h
35 30-03-2011 06:53:05 -0.3 C 4.18 g/m*3 -0.3 C 0 km/h
36 30-03-2011 07:05:05 -0.3 C 4.22 g/m*3 -0.3 C 0 km/h
37 30-03-2011 07:17:02 0.1 C 4.34 g/m*3 0.1 C 0 km/h
38 30-03-2011 07:29:02 1 C 4.67 g/m*3 1 C 0 km/h
39 30-03-2011 07:41:02 0.8 C 4.61 g/m*3 0.8 C 0 km/h
40 30-03-2011 07:53:03 1.5 C 4.83 g/m*3 1.5 C 0 km/h
41 30-03-2011 08:05:02 2 C 4.95 g/m*3 2 C 0 km/h
42 30-03-2011 08:17:02 2.4 C 5.08 g/m*3 2.4 C 0 km/h
43 30-03-2011 08:29:02 2.9 C 5.2 g/m*3 2.9 C 0 km/h
44 30-03-2011 08:41:02 3.6 C 5.26 g/m*3 3.6 C 0 km/h
45 30-03-2011 08:53:02 3.8 C 4.96 g/m*3 3.8 C 0 km/h
46 30-03-2011 09:05:02 4.2 C 4.83 g/m*3 4.2 C 0 km/h
47 30-03-2011 09:17:02 4.5 C 4.67 g/m*3 4.5 C 0 km/h
48 30-03-2011 09:29:02 5.4 C 4.67 g/m*3 5.4 C 0 km/h
49 30-03-2011 09:41:02 5.4 C 4.47 g/m*3 5.4 C 0 km/h
50 30-03-2011 09:53:02 5.9 C 4.61 g/m*3 5.9 C 0 km/h
Sensor: Nr:Datum:Temp:Abs-Feuchte:Windchill:Wind:
Aussen-T/F 51 30-03-2011 10:05:01 6.2 C 4.63 g/m*3 6.2 C 0 km/h
52 30-03-2011 10:17:02 7 C 4.73 g/m*3 7 C 0 km/h
53 30-03-2011 10:29:02 8.8 C 4.96 g/m*3 8.8 C 0 km/h
54 30-03-2011 10:41:02 10 C 4.7 g/m*3 10 C 0 km/h
55 30-03-2011 10:53:02 10.5 C 4.75 g/m*3 10.5 C 0 km/h
56 30-03-2011 11:05:03 11.2 C 4.56 g/m*3 11.2 C 0 km/h
57 30-03-2011 11:17:02 11 C 4.4 g/m*3 11 C 0 km/h
58 30-03-2011 11:29:02 11 C 4.6 g/m*3 11 C 0 km/h
59 30-03-2011 11:41:03 11.3 C 4.69 g/m*3 11.3 C 0 km/h
60 30-03-2011 11:53:02 11.9 C 4.98 g/m*3 11.9 C 0 km/h
61 30-03-2011 12:05:02 11.7 C 5.02 g/m*3 11.7 C 0 km/h
62 30-03-2011 12:17:01 12 C 5.22 g/m*3 12 C 0 km/h
63 30-03-2011 12:29:01 13.6 C 5.65 g/m*3 13.6 C 0 km/h
64 30-03-2011 12:41:02 13.1 C 5.48 g/m*3 13.1 C 0 km/h
65 30-03-2011 12:53:02 13.1 C 5.71 g/m*3 13.1 C 0 km/h
66 30-03-2011 13:05:02 13.6 C 5.77 g/m*3 13.6 C 0 km/h
67 30-03-2011 13:17:02 13.9 C 5.75 g/m*3 13.9 C 0 km/h
68 30-03-2011 13:29:02 14.4 C 5.81 g/m*3 14.4 C 0 km/h
69 30-03-2011 13:41:02 14.6 C 5.88 g/m*3 14.6 C 0 km/h
70 30-03-2011 13:53:02 15.8 C 5.92 g/m*3 15.8 C 0 km/h
71 30-03-2011 14:05:02 15.7 C 5.75 g/m*3 15.7 C 0 km/h
72 30-03-2011 14:17:03 16 C 5.59 g/m*3 16 C 0 km/h
73 30-03-2011 14:29:03 16.2 C 5.65 g/m*3 16.2 C 0 km/h
74 30-03-2011 14:41:02 16.1 C 5.62 g/m*3 16.1 C 0 km/h
75 30-03-2011 14:53:02 16.8 C 5.72 g/m*3 16.8 C 0 km/h
Sensor: Nr:Datum:Temp:Abs-Feuchte:Windchill:Wind:
Aussen-T/F 76 30-03-2011 15:05:02 16.9 C 5.75 g/m*3 16.9 C 0 km/h
77 30-03-2011 15:17:03 16.4 C 5.72 g/m*3 16.4 C 0 km/h
78 30-03-2011 15:29:03 17.9 C 5.34 g/m*3 17.9 C 0 km/h
79 30-03-2011 15:41:02 17.6 C 5.55 g/m*3 17.6 C 0 km/h
80 30-03-2011 15:53:03 17 C 5.35 g/m*3 17 C 0 km/h
81 30-03-2011 16:05:02 16 C 5.45 g/m*3 16 C 0 km/h
82 30-03-2011 16:17:02 16.1 C 5.48 g/m*3 16.1 C 0 km/h
83 30-03-2011 16:29:02 16.4 C 5.58 g/m*3 16.4 C 0 km/h
84 30-03-2011 16:41:02 15.9 C 5.42 g/m*3 15.9 C 0 km/h
85 30-03-2011 16:53:02 15.4 C 5.52 g/m*3 15.4 C 0 km/h
86 30-03-2011 17:05:02 14 C 6.03 g/m*3 14 C 0 km/h
87 30-03-2011 17:17:02 14.2 C 7.2 g/m*3 14.2 C 0 km/h
88 30-03-2011 17:29:02 13.7 C 7.46 g/m*3 13.7 C 0 km/h
89 30-03-2011 17:41:01 14.1 C 7.77 g/m*3 14.1 C 0 km/h
90 30-03-2011 17:53:02 13.7 C 7.34 g/m*3 13.7 C 0 km/h
91 30-03-2011 18:05:01 13.7 C 7.34 g/m*3 13.7 C 0 km/h
92 30-03-2011 18:17:02 14.3 C 7.49 g/m*3 14.3 C 0 km/h
93 30-03-2011 18:29:02 15 C 7.05 g/m*3 15 C 0 km/h
94 30-03-2011 18:41:02 14.2 C 7.08 g/m*3 14.2 C 0 km/h
95 30-03-2011 18:53:02 13.6 C 7.18 g/m*3 13.6 C 0 km/h
96 30-03-2011 19:05:03 13.4 C 6.97 g/m*3 13.4 C 0 km/h
97 30-03-2011 19:17:02 13.2 C 6.32 g/m*3 13.2 C 0 km/h
98 30-03-2011 19:29:02 12.7 C 6.23 g/m*3 12.7 C 0 km/h
99 30-03-2011 19:41:02 12.2 C 6.04 g/m*3 12.2 C 0 km/h
100 30-03-2011 19:53:02 12 C 6.18 g/m*3 12 C 0 km/h
Sensor: Nr:Datum:Temp:Abs-Feuchte:Windchill:Wind:
Aussen-T/F 101 30-03-2011 20:05:02 11.7 C 6.28 g/m*3 11.7 C 0 km/h
102 30-03-2011 20:17:01 11.6 C 6.34 g/m*3 11.6 C 0 km/h
103 30-03-2011 20:29:01 11.4 C 6.47 g/m*3 11.4 C 0 km/h
104 30-03-2011 20:41:02 11.3 C 6.63 g/m*3 11.3 C 0 km/h
105 30-03-2011 20:53:02 11.5 C 6.71 g/m*3 11.5 C 0 km/h
106 30-03-2011 21:05:02 10.8 C 6.52 g/m*3 10.8 C 0 km/h
107 30-03-2011 21:17:02 10.4 C 6.65 g/m*3 10.4 C 0 km/h
108 30-03-2011 21:29:02 10.3 C 6.7 g/m*3 10.3 C 0 km/h
109 30-03-2011 21:41:02 10.2 C 6.76 g/m*3 10.2 C 0 km/h
110 30-03-2011 21:53:02 10.1 C 6.81 g/m*3 10.1 C 0 km/h
111 30-03-2011 22:06:49 10.2 C 6.85 g/m*3 10.2 C 0 km/h
112 30-03-2011 22:18:49 10.2 C 6.85 g/m*3 10.2 C 0 km/h
113 30-03-2011 22:30:49 10 C 6.77 g/m*3 10 C 0 km/h
114 30-03-2011 22:42:49 9.6 C 6.78 g/m*3 9.6 C 0 km/h
115 30-03-2011 22:54:49 9 C 6.61 g/m*3 9 C 0 km/h
116 30-03-2011 23:06:49 9.1 C 6.83 g/m*3 9.1 C 0 km/h
117 30-03-2011 23:18:49 9.3 C 7.01 g/m*3 9.3 C 0 km/h
118 30-03-2011 23:30:49 9.7 C 7.1 g/m*3 9.7 C 0 km/h
119 30-03-2011 23:42:49 9.8 C 7.05 g/m*3 9.8 C 0 km/h
120 30-03-2011 23:54:49 9.7 C 7.01 g/m*3 9.7 C 0 km/h

Legende:
   Min
   Max


Maximal/Minimal-Werte vom 30.03.2011 - 30.03.2011

Sensor Min Max Avg
Temp
(Aussen-T/F)
-0.3 °C
30-03-2011  06:53:05
17.9 °C
30-03-2011  15:29:03
8.36 °C
Abs-Feuchte
(Aussen-T/F)
4.18 g/m*3
30-03-2011  06:53:05
7.77 g/m*3
30-03-2011  17:41:01
5.41 g/m*3
Windchill
(Aussen-T/F)
-0.3 C
30-03-2011  06:53:05
17.9 C
30-03-2011  15:29:03
8.29 C

Die Daten stammen von einer Davis Vantage Pro 2 Wetter-Station und werden unter Linux mit der Software wview2wettercgi und aufbereitet. Alle Angaben erfolgen ohne Gewähr für ihre Vollständigkeit oder Richtigkeit.
Kontakt: Rainer Krienke krienke@uni-koblenz.de . Meine Webseiten an der Uni Koblenz oder privat.
Version: $Revision: 0.78 $